Time;durP1;ratioP1;P1;durP2;ratioP2;P2;SDS_P1;SDS_P2;PMS_P1;PMS_P2;Temp;Humidity;BMP_temperature;BMP_pressure;BME280_temperature;BME280_humidity;BME280_pressure;Samples;Min_cycle;Max_cycle;Signal;HPM_P1;HPM_P2
2021/12/15 00:01:33;;;;;;;67.38;32.83;;;51.20;2227.20;;;;;;5073888;28;20077;-58
2021/12/15 00:03:59;;;;;;;62.25;29.25;;;51.40;2201.60;;;;;;5074631;28;20074;-58
2021/12/15 00:06:25;;;;;;;64.53;32.90;;;51.50;2124.80;;;;;;5073883;28;20033;-57
2021/12/15 00:08:54;;;;;;;60.85;30.00;;;51.40;2048.00;;;;;;5074149;28;20024;-56
2021/12/15 00:11:21;;;;;;;58.17;30.08;;;51.30;2073.60;;;;;;5074182;28;20456;-58
2021/12/15 00:13:48;;;;;;;61.05;30.50;;;51.20;2124.80;;;;;;5073895;28;20470;-58
2021/12/15 00:16:15;;;;;;;54.47;26.95;;;26.50;2073.60;;;;;;5073830;28;20035;-58
2021/12/15 00:18:44;;;;;;;50.25;26.00;;;26.40;2073.60;;;;;;5073763;28;20055;-58
2021/12/15 00:21:13;;;;;;;48.20;24.90;;;26.40;2073.60;;;;;;5073687;28;20029;-58
2021/12/15 00:23:41;;;;;;;52.85;26.70;;;26.30;2073.60;;;;;;5073964;28;20028;-56
2021/12/15 00:26:07;;;;;;;59.60;28.73;;;26.40;2073.60;;;;;;5073651;28;20445;-56
2021/12/15 00:28:33;;;;;;;48.03;25.38;;;26.40;2073.60;;;;;;5073662;28;20111;-56
2021/12/15 00:30:59;;;;;;;46.13;23.70;;;26.40;2073.60;;;;;;5073689;28;20109;-56
2021/12/15 00:33:24;;;;;;;1580.70;92.95;;;26.40;2150.40;;;;;;5073945;28;20346;-56
2021/12/15 00:35:50;;;;;;;51.40;23.60;;;26.50;2201.60;;;;;;5073620;28;20116;-56
2021/12/15 00:38:16;;;;;;;41.20;22.13;;;51.30;2227.20;;;;;;5072904;28;20089;-57
2021/12/15 00:40:42;;;;;;;36.42;20.15;;;51.40;2150.40;;;;;;5073487;28;20035;-57
2021/12/15 00:43:08;;;;;;;41.95;22.17;;;51.20;2073.60;;;;;;5073493;28;20049;-57
2021/12/15 00:45:34;;;;;;;39.40;22.35;;;26.50;2099.20;;;;;;5073625;28;20503;-57
2021/12/15 00:48:01;;;;;;;36.92;20.33;;;26.40;2124.80;;;;;;5073556;28;20063;-57
2021/12/15 00:50:30;;;;;;;42.95;23.10;;;26.40;2099.20;;;;;;5073435;28;20021;-56
2021/12/15 00:52:56;;;;;;;40.42;20.77;;;26.30;2099.20;;;;;;5073410;28;20028;-57
2021/12/15 00:55:28;;;;;;;36.17;20.60;;;26.30;2099.20;;;;;;5073369;28;20553;-57
2021/12/15 00:57:54;;;;;;;37.50;20.38;;;26.30;2073.60;;;;;;5073522;28;20039;-56
2021/12/15 01:00:35;;;;;;;36.03;19.30;;;26.30;2099.20;;;;;;5075318;28;20029;-56
2021/12/15 01:03:01;;;;;;;35.95;19.15;;;26.40;2099.20;;;;;;5077380;28;20406;-57
2021/12/15 01:05:33;;;;;;;38.55;20.95;;;26.40;2099.20;;;;;;5077329;28;20035;-56
2021/12/15 01:08:03;;;;;;;244.90;37.92;;;26.40;2176.00;;;;;;5077446;28;20025;-57
2021/12/15 01:10:43;;;;;;;58.03;27.45;;;26.50;2201.60;;;;;;5077308;28;20107;-57
2021/12/15 01:21:16;;;;;;;71.00;33.95;;;51.30;2073.60;;;;;;5077241;28;20040;-56
2021/12/15 01:23:43;;;;;;;63.78;29.88;;;51.30;2099.20;;;;;;5077099;28;20035;-56
2021/12/15 01:26:12;;;;;;;60.65;28.80;;;51.20;2099.20;;;;;;5077691;28;20021;-56
2021/12/15 01:28:38;;;;;;;62.00;29.30;;;51.20;2099.20;;;;;;5077089;28;20030;-55
2021/12/15 01:31:06;;;;;;;62.88;30.77;;;26.50;2073.60;;;;;;5076767;28;20021;-57
2021/12/15 01:33:33;;;;;;;50.88;26.05;;;26.50;2073.60;;;;;;5076746;28;20028;-57
2021/12/15 01:36:01;;;;;;;45.65;23.20;;;26.50;2073.60;;;;;;5076642;28;20031;-56
2021/12/15 01:38:30;;;;;;;48.15;24.13;;;26.40;2099.20;;;;;;5076829;28;20028;-56
2021/12/15 01:40:57;;;;;;;59.30;26.30;;;26.50;2099.20;;;;;;5076883;28;20044;-57
2021/12/15 01:43:38;;;;;;;214.40;34.90;;;26.50;2201.60;;;;;;5076631;28;20044;-58
2021/12/15 01:49:18;;;;;;;46.97;21.88;;;51.50;2227.20;;;;;;5077085;28;20127;-56
2021/12/15 01:51:44;;;;;;;45.03;19.60;;;51.60;2227.20;;;;;;5074195;28;20432;-56
2021/12/15 01:54:12;;;;;;;37.30;19.65;;;51.60;2124.80;;;;;;5076488;28;20028;-56
2021/12/15 01:56:38;;;;;;;41.47;20.38;;;51.50;2124.80;;;;;;5076584;28;20078;-56
2021/12/15 01:59:05;;;;;;;43.33;19.75;;;51.50;2150.40;;;;;;5076341;28;20028;-56
2021/12/15 02:01:32;;;;;;;37.42;18.60;;;51.40;2150.40;;;;;;5076171;28;20394;-56
2021/12/15 02:03:58;;;;;;;37.22;18.05;;;51.40;2124.80;;;;;;5075906;28;20500;-55
2021/12/15 02:06:26;;;;;;;35.67;19.00;;;51.40;2124.80;;;;;;5076355;28;20032;-55
2021/12/15 02:08:52;;;;;;;36.88;18.05;;;51.40;2099.20;;;;;;5076173;28;20035;-56
2021/12/15 02:11:18;;;;;;;37.33;18.40;;;51.30;2099.20;;;;;;5076098;28;20477;-56
2021/12/15 02:13:44;;;;;;;39.78;19.23;;;51.30;2124.80;;;;;;5076153;28;20032;-56
2021/12/15 02:16:10;;;;;;;49.03;18.15;;;51.30;2124.80;;;;;;5076204;28;20039;-57
2021/12/15 02:18:42;;;;;;;45.20;19.88;;;51.30;2150.40;;;;;;5075858;28;20029;-57
2021/12/15 02:21:11;;;;;;;289.67;30.85;;;51.40;2227.20;;;;;;5076256;28;20386;-58
2021/12/15 02:23:43;;;;;;;52.17;23.10;;;51.60;2227.20;;;;;;5076165;28;20046;-58
2021/12/15 02:26:35;;;;;;;44.72;20.80;;;51.80;2227.20;;;;;;5076118;28;20037;-58
2021/12/15 02:29:03;;;;;;;43.38;19.50;;;51.80;2201.60;;;;;;5076183;28;20115;-58
2021/12/15 02:39:52;;;;;;;35.60;18.00;;;51.50;2124.80;;;;;;5033672;28;20056;-57
2021/12/15 02:42:21;;;;;;;33.70;17.65;;;51.50;2124.80;;;;;;5033359;28;20052;-56
2021/12/15 02:44:46;;;;;;;36.35;19.25;;;51.40;2099.20;;;;;;5033478;28;20038;-57
2021/12/15 02:47:21;;;;;;;40.45;19.38;;;51.40;2099.20;;;;;;5033601;28;20033;-56
2021/12/15 02:49:48;;;;;;;37.35;18.20;;;51.40;2099.20;;;;;;5033375;28;20391;-55
2021/12/15 02:52:14;;;;;;;36.65;18.77;;;51.40;2099.20;;;;;;5033937;28;20072;-56
2021/12/15 02:54:40;;;;;;;42.90;21.42;;;51.40;2124.80;;;;;;5033988;28;20033;-56
2021/12/15 02:57:10;;;;;;;57.92;21.38;;;51.40;2176.00;;;;;;5033265;28;20046;-56
2021/12/15 03:02:34;;;;;;;37.15;20.55;;;51.70;2227.20;;;;;;5033307;28;20041;-57
2021/12/15 03:05:12;;;;;;;37.38;19.38;;;51.70;2201.60;;;;;;5032881;28;20060;-56
2021/12/15 03:07:49;;;;;;;45.13;20.45;;;51.80;2099.20;;;;;;5033127;28;20034;-56
2021/12/15 03:16:01;;;;;;;31.10;17.13;;;51.30;2099.20;;;;;;4997986;28;20076;-56
2021/12/15 03:18:29;;;;;;;28.55;15.15;;;51.30;2124.80;;;;;;5013101;28;20479;-56
2021/12/15 03:21:07;;;;;;;32.00;16.88;;;51.20;2124.80;;;;;;5012887;28;20037;-56
2021/12/15 03:24:15;;;;;;;30.88;16.13;;;51.20;2099.20;;;;;;5012680;28;20417;-56
2021/12/15 03:26:54;;;;;;;22.80;12.75;;;26.50;2073.60;;;;;;4954615;29;20038;-57
2021/12/15 03:37:32;;;;;;;34.60;17.13;;;51.40;2227.20;;;;;;4954501;29;20473;-56
2021/12/15 03:40:00;;;;;;;28.55;14.65;;;51.50;2201.60;;;;;;4954676;28;20030;-57
2021/12/15 03:42:36;;;;;;;27.65;14.93;;;51.70;2099.20;;;;;;4954194;29;20058;-56
2021/12/15 03:45:06;;;;;;;31.17;15.10;;;51.50;2099.20;;;;;;4954240;29;20037;-56
2021/12/15 03:47:35;;;;;;;30.70;15.75;;;51.40;2124.80;;;;;;4954260;29;20039;-57
2021/12/15 03:50:03;;;;;;;30.73;15.38;;;51.40;2124.80;;;;;;4992466;28;20419;-57
2021/12/15 03:52:28;;;;;;;30.27;16.40;;;51.30;2150.40;;;;;;4993299;28;20026;-56
2021/12/15 03:54:54;;;;;;;30.92;15.70;;;51.20;2124.80;;;;;;4992950;28;20030;-56
2021/12/15 03:57:21;;;;;;;31.70;16.70;;;51.20;2099.20;;;;;;4993001;28;20146;-56
2021/12/15 03:59:47;;;;;;;28.38;15.02;;;51.20;2124.80;;;;;;5008535;28;20032;-55
2021/12/15 04:02:15;;;;;;;28.00;13.60;;;26.50;2099.20;;;;;;5073813;28;20037;-56
2021/12/15 04:04:42;;;;;;;32.85;16.02;;;26.50;2099.20;;;;;;5073881;28;20032;-56
2021/12/15 04:07:09;;;;;;;61.25;17.58;;;26.50;2124.80;;;;;;5073844;28;20099;-56
2021/12/15 04:09:35;;;;;;;460.52;34.63;;;51.20;2227.20;;;;;;5073932;28;20039;-56
2021/12/15 04:12:01;;;;;;;42.38;18.30;;;51.50;2227.20;;;;;;5073849;28;20546;-55
2021/12/15 04:14:34;;;;;;;31.40;15.65;;;51.60;2227.20;;;;;;5074091;28;20107;-56
2021/12/15 04:17:06;;;;;;;27.60;14.25;;;51.70;2227.20;;;;;;5073885;28;20494;-56
2021/12/15 04:19:35;;;;;;;28.10;13.23;;;51.80;2124.80;;;;;;5073783;28;20378;-56
2021/12/15 04:22:01;;;;;;;43.67;17.10;;;51.60;2124.80;;;;;;5073671;28;20091;-59
2021/12/15 04:24:27;;;;;;;49.47;20.55;;;51.60;2201.60;;;;;;5073554;28;20016;-57
2021/12/15 04:26:56;;;;;;;43.85;18.95;;;51.70;2201.60;;;;;;5073598;28;20115;-57
2021/12/15 04:29:22;;;;;;;44.03;18.50;;;51.70;2201.60;;;;;;5073813;28;20027;-56
2021/12/15 04:32:00;;;;;;;46.05;20.08;;;51.80;2201.60;;;;;;5073790;28;20425;-57
2021/12/15 04:34:25;;;;;;;34.25;16.25;;;51.80;2201.60;;;;;;5072908;28;20108;-57
2021/12/15 04:36:53;;;;;;;35.58;14.88;;;51.80;2201.60;;;;;;5073570;28;20044;-57
2021/12/15 04:39:22;;;;;;;30.20;15.23;;;51.90;2201.60;;;;;;5073594;28;20028;-56
2021/12/15 04:41:51;;;;;;;38.55;16.13;;;51.90;2201.60;;;;;;5073444;28;20091;-57
2021/12/15 04:44:19;;;;;;;32.47;16.17;;;51.90;2201.60;;;;;;5055901;28;20053;-56
2021/12/15 04:47:00;;;;;;;31.52;15.23;;;51.80;2201.60;;;;;;5053392;28;20112;-55
2021/12/15 04:49:39;;;;;;;38.85;18.42;;;51.80;2227.20;;;;;;5053350;28;20028;-56
2021/12/15 04:52:05;;;;;;;36.55;15.63;;;51.80;2227.20;;;;;;5053513;28;20028;-56
2021/12/15 04:54:31;;;;;;;44.95;18.42;;;51.80;2227.20;;;;;;5053505;28;20383;-56
2021/12/15 04:56:57;;;;;;;43.85;20.98;;;51.90;2227.20;;;;;;5053341;28;20041;-56
2021/12/15 04:59:23;;;;;;;62.70;23.45;;;51.90;2201.60;;;;;;5053283;28;20112;-56
2021/12/15 05:01:50;;;;;;;55.22;22.02;;;51.90;2201.60;;;;;;5052955;28;20048;-56
2021/12/15 05:04:16;;;;;;;44.47;19.08;;;51.90;2201.60;;;;;;5053465;28;20382;-56
2021/12/15 05:06:42;;;;;;;40.50;16.80;;;51.90;2227.20;;;;;;5053171;28;20033;-56
2021/12/15 05:09:08;;;;;;;35.70;16.30;;;51.90;2227.20;;;;;;5053201;28;20471;-56
2021/12/15 05:11:34;;;;;;;42.55;17.92;;;51.90;2201.60;;;;;;5053296;28;20055;-57
2021/12/15 05:14:00;;;;;;;37.97;17.98;;;51.90;2227.20;;;;;;5053195;28;20033;-57
2021/12/15 05:16:26;;;;;;;46.92;20.05;;;51.90;2227.20;;;;;;5053231;28;20108;-56
2021/12/15 05:18:52;;;;;;;50.95;22.92;;;51.90;2227.20;;;;;;5053351;28;20052;-56
2021/12/15 05:21:18;;;;;;;53.50;25.02;;;51.90;2227.20;;;;;;5052901;28;20516;-56
2021/12/15 05:23:49;;;;;;;46.03;22.42;;;51.90;2227.20;;;;;;5053281;28;20052;-57
2021/12/15 05:26:15;;;;;;;49.45;22.38;;;51.90;2227.20;;;;;;5053266;28;20037;-57
2021/12/15 05:28:41;;;;;;;41.28;19.95;;;52.00;2227.20;;;;;;5053004;28;20021;-57
2021/12/15 05:31:07;;;;;;;41.40;21.35;;;52.00;2227.20;;;;;;5053098;28;20029;-55
2021/12/15 05:33:32;;;;;;;37.83;18.65;;;52.00;2227.20;;;;;;5053164;28;20079;-56
2021/12/15 05:35:58;;;;;;;47.97;21.48;;;52.00;2227.20;;;;;;5052857;28;20033;-56
2021/12/15 05:38:25;;;;;;;49.15;21.33;;;52.00;2227.20;;;;;;5052816;28;20032;-55
2021/12/15 05:40:52;;;;;;;50.95;23.10;;;52.00;2227.20;;;;;;5052810;28;20080;-56
2021/12/15 05:43:18;;;;;;;60.53;26.98;;;52.00;2201.60;;;;;;5061619;28;20057;-55
2021/12/15 05:45:44;;;;;;;45.92;22.45;;;52.00;2227.20;;;;;;5073366;28;20036;-56
2021/12/15 05:48:12;;;;;;;53.13;25.98;;;52.00;2227.20;;;;;;5076554;28;20067;-56
2021/12/15 05:50:39;;;;;;;56.97;25.85;;;52.00;2227.20;;;;;;5076270;28;20063;-56
2021/12/15 05:53:05;;;;;;;61.08;24.60;;;51.90;2227.20;;;;;;5076621;28;20387;-57
2021/12/15 05:55:31;;;;;;;62.92;24.88;;;52.10;2201.60;;;;;;5076326;28;20024;-57
2021/12/15 05:57:57;;;;;;;61.05;24.70;;;52.10;2227.20;;;;;;5076421;28;20470;-56
2021/12/15 06:00:27;;;;;;;43.92;20.02;;;52.10;2201.60;;;;;;5057599;28;20032;-56
2021/12/15 06:02:55;;;;;;;65.82;25.23;;;52.10;2201.60;;;;;;5076172;28;20537;-56
2021/12/15 06:05:20;;;;;;;47.28;20.38;;;52.00;2201.60;;;;;;5076138;28;20024;-56
2021/12/15 06:07:48;;;;;;;47.03;19.75;;;52.00;2201.60;;;;;;5076285;28;20061;-56
2021/12/15 06:10:19;;;;;;;62.65;25.38;;;52.00;2201.60;;;;;;5075873;28;20016;-56
2021/12/15 06:12:47;;;;;;;55.15;24.20;;;51.90;2227.20;;;;;;5076034;28;20024;-57
2021/12/15 06:15:20;;;;;;;64.35;25.67;;;51.90;2227.20;;;;;;5076132;28;20020;-58
2021/12/15 06:17:47;;;;;;;65.65;28.63;;;52.00;2201.60;;;;;;5076078;28;20028;-58
2021/12/15 06:20:12;;;;;;;69.30;40.47;;;52.00;2201.60;;;;;;5075925;28;20029;-56
2021/12/15 06:22:40;;;;;;;65.38;36.67;;;52.00;2227.20;;;;;;5076004;28;20029;-56
2021/12/15 06:25:06;;;;;;;57.65;26.17;;;52.00;2227.20;;;;;;5076058;28;20025;-55
2021/12/15 06:27:35;;;;;;;56.22;25.25;;;52.00;2227.20;;;;;;5075748;28;20394;-56
2021/12/15 06:30:01;;;;;;;38.22;19.70;;;52.00;2201.60;;;;;;5075709;28;20033;-57
2021/12/15 06:32:27;;;;;;;41.05;18.52;;;52.10;2201.60;;;;;;5075990;28;20024;-57
2021/12/15 06:34:53;;;;;;;37.22;17.50;;;52.10;2201.60;;;;;;5075820;28;20059;-56
2021/12/15 06:37:19;;;;;;;48.58;24.92;;;52.10;2201.60;;;;;;5075875;28;20028;-58
2021/12/15 06:39:44;;;;;;;40.67;21.90;;;52.00;2201.60;;;;;;5075891;28;20024;-58
2021/12/15 06:42:10;;;;;;;44.30;23.27;;;52.00;2201.60;;;;;;5075674;28;20041;-57
2021/12/15 06:44:38;;;;;;;51.45;22.98;;;52.00;2201.60;;;;;;5075426;28;20101;-56
2021/12/15 06:58:23;;;;;;;53.63;22.48;;;52.00;2201.60;;;;;;5042087;28;20068;-56
2021/12/15 07:00:53;;;;;;;52.25;24.13;;;52.00;2201.60;;;;;;5025155;28;20192;-56
2021/12/15 07:03:21;;;;;;;56.40;24.25;;;52.10;2201.60;;;;;;5023895;28;20025;-56
2021/12/15 07:05:48;;;;;;;52.40;22.60;;;52.00;2201.60;;;;;;5015965;28;20049;-56
2021/12/15 07:08:15;;;;;;;52.60;24.70;;;52.10;2227.20;;;;;;5013365;28;20041;-56
2021/12/15 07:10:52;;;;;;;54.45;25.50;;;52.10;2201.60;;;;;;5013851;28;20025;-62
2021/12/15 07:13:19;;;;;;;44.97;22.98;;;52.10;2227.20;;;;;;5013340;28;20124;-60
2021/12/15 07:15:46;;;;;;;48.70;23.40;;;52.10;2201.60;;;;;;5013077;28;20021;-56
2021/12/15 07:18:25;;;;;;;39.80;20.50;;;52.10;2227.20;;;;;;5025880;28;20033;-55
2021/12/15 07:20:51;;;;;;;42.80;24.85;;;76.80;2201.60;;;;;;5045897;28;20462;-56
2021/12/15 07:23:21;;;;;;;50.38;29.35;;;76.80;2201.60;;;;;;5082510;28;20034;-57
2021/12/15 07:25:50;;;;;;;46.35;26.88;;;76.90;2201.60;;;;;;5085233;28;20063;-57
2021/12/15 07:28:18;;;;;;;45.50;25.55;;;76.90;2201.60;;;;;;5081246;28;20021;-57
2021/12/15 07:30:44;;;;;;;41.78;22.33;;;76.90;2176.00;;;;;;5075422;28;20029;-57
2021/12/15 07:33:11;;;;;;;41.13;21.85;;;76.90;2201.60;;;;;;5094959;28;20032;-56
2021/12/15 07:35:38;;;;;;;48.22;20.08;;;76.90;2176.00;;;;;;5095011;28;20030;-56
2021/12/15 07:38:06;;;;;;;34.05;16.85;;;77.00;2201.60;;;;;;5094814;28;20095;-56
2021/12/15 07:40:33;;;;;;;31.30;16.90;;;76.90;2176.00;;;;;;5095072;28;20354;-56
2021/12/15 07:43:13;;;;;;;37.95;17.42;;;77.00;2176.00;;;;;;5094456;28;20121;-57
2021/12/15 07:45:43;;;;;;;34.85;17.55;;;77.10;2176.00;;;;;;5094517;28;20023;-57
2021/12/15 07:48:11;;;;;;;28.42;15.43;;;77.00;2176.00;;;;;;5094480;28;20066;-57
2021/12/15 07:50:38;;;;;;;34.20;18.40;;;77.00;2150.40;;;;;;5094655;28;20027;-56
2021/12/15 07:53:05;;;;;;;34.72;19.05;;;76.90;2150.40;;;;;;5094382;28;20032;-58
2021/12/15 07:55:32;;;;;;;39.00;19.77;;;76.90;2176.00;;;;;;5094407;28;20034;-57
2021/12/15 07:57:58;;;;;;;38.33;21.55;;;76.90;2176.00;;;;;;5094566;28;20034;-57
2021/12/15 08:00:25;;;;;;;46.30;24.95;;;76.80;2176.00;;;;;;5094870;28;20023;-57
2021/12/15 08:02:51;;;;;;;44.10;24.20;;;76.90;2176.00;;;;;;5094464;28;20020;-57
2021/12/15 08:05:17;;;;;;;47.50;24.05;;;76.90;2176.00;;;;;;5093939;28;20422;-57
2021/12/15 08:07:43;;;;;;;51.17;24.17;;;76.90;2150.40;;;;;;5094107;28;20110;-56
2021/12/15 08:10:11;;;;;;;46.40;24.40;;;76.80;2176.00;;;;;;5094161;28;20174;-57
2021/12/15 08:12:42;;;;;;;49.83;24.15;;;76.80;2176.00;;;;;;5094406;28;20028;-56
2021/12/15 08:15:09;;;;;;;61.92;29.33;;;76.80;2176.00;;;;;;5094149;28;20021;-57
2021/12/15 08:17:36;;;;;;;56.78;27.65;;;76.80;2176.00;;;;;;5093859;28;20017;-56
2021/12/15 08:20:06;;;;;;;43.10;20.95;;;76.90;2176.00;;;;;;5094165;28;20040;-57
2021/12/15 08:22:31;;;;;;;33.63;18.38;;;76.90;2176.00;;;;;;5093955;28;20366;-57
2021/12/15 08:24:57;;;;;;;39.40;20.33;;;77.00;2150.40;;;;;;5094109;28;20050;-57
2021/12/15 08:27:23;;;;;;;41.20;21.98;;;77.00;2150.40;;;;;;5093702;28;20020;-57
2021/12/15 08:29:49;;;;;;;39.10;19.38;;;76.90;2150.40;;;;;;5093867;28;20107;-58
2021/12/15 08:32:15;;;;;;;30.10;16.48;;;76.90;2150.40;;;;;;5093759;28;20028;-59
2021/12/15 08:34:41;;;;;;;36.03;17.02;;;76.90;2176.00;;;;;;5093580;28;20526;-56
2021/12/15 08:37:13;;;;;;;36.50;18.73;;;76.90;2176.00;;;;;;5093341;28;20055;-56
2021/12/15 08:39:40;;;;;;;44.03;22.00;;;76.90;2176.00;;;;;;5093736;28;20056;-56
2021/12/15 08:42:06;;;;;;;48.47;23.35;;;77.00;2176.00;;;;;;5093493;28;20119;-58
2021/12/15 08:44:32;;;;;;;47.05;23.35;;;77.00;2176.00;;;;;;5093446;28;20401;-58
2021/12/15 08:46:57;;;;;;;47.85;22.25;;;77.00;2176.00;;;;;;5093655;28;20028;-57
2021/12/15 08:49:23;;;;;;;51.70;23.45;;;77.10;2150.40;;;;;;5094118;28;20051;-56
2021/12/15 08:51:49;;;;;;;44.47;21.63;;;77.00;2150.40;;;;;;5093401;28;20020;-57
2021/12/15 08:54:18;;;;;;;49.90;25.65;;;77.10;2176.00;;;;;;5093778;28;20095;-56
2021/12/15 08:56:45;;;;;;;49.42;22.15;;;77.10;2150.40;;;;;;5093621;28;20020;-58
2021/12/15 08:59:13;;;;;;;54.33;25.33;;;77.20;2150.40;;;;;;5093552;28;20473;-59
2021/12/15 09:01:40;;;;;;;54.72;27.23;;;77.10;2150.40;;;;;;5093227;28;20036;-57
2021/12/15 09:04:06;;;;;;;50.20;24.83;;;77.20;2150.40;;;;;;5093624;28;20020;-56
2021/12/15 09:06:33;;;;;;;47.53;25.17;;;77.20;2150.40;;;;;;5093423;28;20032;-58
2021/12/15 09:08:58;;;;;;;42.83;21.20;;;77.30;2124.80;;;;;;5093421;28;20069;-57
2021/12/15 09:11:26;;;;;;;49.80;25.33;;;77.20;2124.80;;;;;;5093658;28;20103;-58
2021/12/15 09:13:55;;;;;;;48.63;24.75;;;77.20;2124.80;;;;;;5093526;28;20027;-56
2021/12/15 09:16:23;;;;;;;58.85;28.55;;;77.30;2124.80;;;;;;5093510;28;20146;-58
2021/12/15 09:18:54;;;;;;;61.13;30.55;;;77.20;2124.80;;;;;;5093508;28;20520;-58
2021/12/15 09:21:24;;;;;;;49.85;26.52;;;77.20;2124.80;;;;;;5095082;28;20491;-56
2021/12/15 09:23:50;;;;;;;46.30;24.85;;;77.20;2150.40;;;;;;5097360;28;20107;-56
2021/12/15 09:26:16;;;;;;;48.78;25.08;;;77.10;2150.40;;;;;;5097109;28;20151;-57
2021/12/15 09:28:42;;;;;;;42.85;23.77;;;77.20;2150.40;;;;;;5097193;28;20027;-56
2021/12/15 09:31:09;;;;;;;34.55;18.98;;;77.20;2124.80;;;;;;5097161;28;20028;-58
2021/12/15 09:33:41;;;;;;;32.75;18.27;;;77.20;2124.80;;;;;;5096877;28;20020;-56
2021/12/15 09:36:10;;;;;;;38.60;21.65;;;77.20;2124.80;;;;;;5096942;28;20110;-57
2021/12/15 09:38:36;;;;;;;43.65;22.92;;;77.20;2124.80;;;;;;5096952;28;20020;-57
2021/12/15 09:41:04;;;;;;;42.47;22.85;;;77.20;2099.20;;;;;;5097130;28;20028;-56
2021/12/15 09:43:31;;;;;;;39.33;21.10;;;77.30;2124.80;;;;;;5096726;28;20052;-56
2021/12/15 09:46:08;;;;;;;38.40;20.55;;;77.30;2124.80;;;;;;5096847;28;20024;-59
2021/12/15 10:05:01;;;;;;;48.50;23.75;;;77.30;2150.40;;;;;;5096319;28;20024;-57
2021/12/15 10:18:42;;;;;;;68.60;34.10;;;77.40;2150.40;;;;;;5096513;28;20027;-56
2021/12/15 10:21:36;;;;;;;86.53;43.33;;;77.50;2150.40;;;;;;5096006;28;20288;-56
2021/12/15 10:24:04;;;;;;;81.72;42.10;;;77.50;2124.80;;;;;;5096261;28;20026;-57
2021/12/15 10:26:30;;;;;;;73.63;39.35;;;77.50;2150.40;;;;;;5096286;28;20557;-58
2021/12/15 10:28:56;;;;;;;59.00;31.00;;;77.50;2150.40;;;;;;5077410;28;20130;-57
2021/12/15 10:31:28;;;;;;;45.38;25.13;;;77.50;2150.40;;;;;;5095976;28;20055;-58
2021/12/15 10:34:03;;;;;;;32.67;19.23;;;77.50;2150.40;;;;;;5095118;28;20028;-56
2021/12/15 10:36:32;;;;;;;41.10;23.30;;;77.50;2176.00;;;;;;5096150;28;20028;-56
2021/12/15 10:39:03;;;;;;;44.15;25.25;;;77.50;2176.00;;;;;;5095986;28;20032;-57
2021/12/15 10:41:33;;;;;;;49.50;27.48;;;77.60;2176.00;;;;;;5095782;28;20122;-57
2021/12/15 10:44:04;;;;;;;55.85;30.33;;;77.60;2176.00;;;;;;5095780;28;20454;-58
2021/12/15 10:46:38;;;;;;;48.22;25.58;;;77.70;2176.00;;;;;;5095831;28;20081;-58
2021/12/15 10:49:17;;;;;;;37.58;21.13;;;102.40;2150.40;;;;;;5096125;28;20020;-58
2021/12/15 10:51:48;;;;;;;33.15;19.65;;;102.40;2176.00;;;;;;5095740;28;20039;-56
2021/12/15 10:54:33;;;;;;;39.30;22.35;;;102.40;2150.40;;;;;;5095478;28;20028;-56
2021/12/15 10:57:10;;;;;;;33.00;20.85;;;102.50;2150.40;;;;;;5095759;28;20039;-58
2021/12/15 10:59:41;;;;;;;34.90;21.02;;;102.50;2150.40;;;;;;5095938;28;20028;-57
2021/12/15 11:02:09;;;;;;;29.10;18.23;;;102.60;2150.40;;;;;;5095419;28;20044;-59
2021/12/15 11:04:45;;;;;;;28.88;18.27;;;102.60;2150.40;;;;;;5095492;28;20024;-57
2021/12/15 11:07:17;;;;;;;33.67;20.05;;;102.60;2150.40;;;;;;5095521;28;20050;-57
2021/12/15 11:09:55;;;;;;;29.30;17.95;;;102.60;2176.00;;;;;;5095361;28;20408;-58
2021/12/15 11:12:31;;;;;;;30.58;20.00;;;102.70;2150.40;;;;;;5095636;28;20035;-59
2021/12/15 11:15:00;;;;;;;36.90;20.70;;;102.70;2150.40;;;;;;5095234;28;20103;-58
2021/12/15 11:17:32;;;;;;;37.55;21.23;;;102.70;2150.40;;;;;;5095043;28;20111;-56
2021/12/15 11:20:04;;;;;;;33.13;20.83;;;102.80;2150.40;;;;;;5095417;28;20099;-56
2021/12/15 11:22:33;;;;;;;34.22;20.90;;;102.90;2124.80;;;;;;5095093;28;20423;-55
2021/12/15 11:25:01;;;;;;;38.88;23.08;;;103.00;2124.80;;;;;;5095251;28;20028;-56
2021/12/15 11:27:27;;;;;;;43.80;23.90;;;103.00;2124.80;;;;;;5094987;28;20505;-56
2021/12/15 11:29:53;;;;;;;40.33;23.42;;;103.00;2124.80;;;;;;5095052;28;20028;-56
2021/12/15 11:32:36;;;;;;;53.28;26.95;;;103.10;2124.80;;;;;;5094662;28;20027;-56
2021/12/15 11:35:07;;;;;;;50.75;27.77;;;103.10;2099.20;;;;;;5094491;28;20056;-56
2021/12/15 11:37:56;;;;;;;48.33;26.40;;;103.20;2099.20;;;;;;5094623;28;20028;-57
2021/12/15 11:40:27;;;;;;;83.68;41.50;;;103.20;2099.20;;;;;;5094842;28;20024;-58
2021/12/15 11:42:53;;;;;;;127.65;62.00;;;103.20;2099.20;;;;;;5094396;28;20082;-58
2021/12/15 11:45:19;;;;;;;106.35;53.20;;;103.20;2124.80;;;;;;5094323;28;20047;-56
2021/12/15 11:47:45;;;;;;;70.50;35.80;;;103.20;2124.80;;;;;;5094639;28;20031;-56
2021/12/15 11:50:19;;;;;;;64.93;33.38;;;103.30;2099.20;;;;;;5094598;28;20020;-56
2021/12/15 11:52:48;;;;;;;61.90;32.60;;;103.30;2099.20;;;;;;5094613;28;20028;-56
2021/12/15 11:55:29;;;;;;;56.88;31.67;;;103.30;2099.20;;;;;;5095156;28;20038;-59
2021/12/15 11:57:56;;;;;;;53.42;30.98;;;103.30;2124.80;;;;;;5094212;28;20028;-56
2021/12/15 12:00:27;;;;;;;51.58;28.48;;;103.20;2124.80;;;;;;5094195;28;20050;-56
2021/12/15 12:02:57;;;;;;;44.80;24.95;;;103.30;2124.80;;;;;;5094262;28;20144;-59
2021/12/15 12:05:37;;;;;;;47.60;25.65;;;103.20;2150.40;;;;;;5094510;28;20126;-56
2021/12/15 12:08:07;;;;;;;57.10;26.30;;;103.30;2124.80;;;;;;5094155;28;20382;-59
2021/12/15 12:10:43;;;;;;;43.30;26.52;;;103.30;2099.20;;;;;;5094143;28;20473;-56
2021/12/15 12:13:19;;;;;;;56.08;30.52;;;103.30;2099.20;;;;;;5094068;28;20458;-56
2021/12/15 12:15:47;;;;;;;61.08;31.73;;;103.30;2099.20;;;;;;5093907;28;20032;-59
2021/12/15 12:18:21;;;;;;;56.55;31.55;;;128.00;2124.80;;;;;;5094387;28;20024;-59
2021/12/15 12:20:52;;;;;;;54.72;31.23;;;103.30;2099.20;;;;;;5093996;28;20055;-56
2021/12/15 12:23:29;;;;;;;64.28;35.58;;;103.30;2099.20;;;;;;5093891;28;20028;-59
2021/12/15 12:26:02;;;;;;;59.13;33.78;;;103.30;2099.20;;;;;;5094058;28;20020;-57
2021/12/15 12:28:38;;;;;;;54.22;31.33;;;103.30;2099.20;;;;;;5094014;28;20035;-60
2021/12/15 12:31:08;;;;;;;57.17;30.67;;;103.30;2099.20;;;;;;5093792;28;20057;-57
2021/12/15 12:33:34;;;;;;;54.47;30.50;;;103.30;2099.20;;;;;;5093896;28;20135;-56
2021/12/15 12:36:25;;;;;;;49.22;29.15;;;103.30;2099.20;;;;;;5093674;28;20145;-57
2021/12/15 12:38:55;;;;;;;50.22;28.27;;;103.30;2124.80;;;;;;5094183;28;20028;-57
2021/12/15 12:41:26;;;;;;;41.42;24.80;;;103.30;2099.20;;;;;;5093898;28;20032;-59
2021/12/15 12:43:59;;;;;;;39.60;23.60;;;103.30;2099.20;;;;;;5093883;28;20496;-57
2021/12/15 12:46:37;;;;;;;52.90;29.20;;;103.30;2099.20;;;;;;5093886;28;20406;-57
2021/12/15 13:00:48;;;;;;;83.45;42.63;;;103.30;2099.20;;;;;;5055360;28;20148;-59
2021/12/15 13:03:26;;;;;;;72.40;39.88;;;103.20;2124.80;;;;;;5055747;28;20032;-60
2021/12/15 13:06:13;;;;;;;63.30;33.90;;;103.30;2150.40;;;;;;5055329;28;20120;-59
2021/12/15 13:08:45;;;;;;;53.45;30.92;;;103.30;2124.80;;;;;;5055253;28;20033;-57
2021/12/15 13:11:19;;;;;;;68.68;38.88;;;103.30;2124.80;;;;;;5055324;28;20029;-59
2021/12/15 13:13:56;;;;;;;;;;;103.30;2124.80;;;;;;5055836;28;20028;-59
2021/12/15 13:16:29;;;;;;;104.30;51.67;;;103.30;2124.80;;;;;;5055251;28;19905;-57
2021/12/15 13:19:00;;;;;;;115.32;53.63;;;103.30;2124.80;;;;;;5055353;28;20032;-60
2021/12/15 13:21:50;;;;;;;128.85;57.70;;;103.20;2150.40;;;;;;5055104;28;20037;-59
2021/12/15 13:30:38;;;;;;;113.05;51.00;;;103.30;2150.40;;;;;;5035078;28;20076;-57
2021/12/15 13:33:11;;;;;;;104.60;48.60;;;103.20;2150.40;;;;;;5034837;28;20536;-57
2021/12/15 13:35:43;;;;;;;109.43;48.13;;;103.20;2150.40;;;;;;5034798;28;20109;-58
2021/12/15 13:38:09;;;;;;;120.22;51.63;;;103.20;2150.40;;;;;;5048640;28;20033;-58
2021/12/15 13:40:56;;;;;;;115.95;52.28;;;103.30;2150.40;;;;;;5054831;28;20414;-57
2021/12/15 13:43:36;;;;;;;115.93;52.30;;;103.30;2150.40;;;;;;5054521;28;20084;-60
2021/12/15 13:46:04;;;;;;;109.85;50.70;;;128.00;2176.00;;;;;;5054688;28;20044;-58
2021/12/15 13:48:54;;;;;;;111.35;51.03;;;128.00;2176.00;;;;;;5054765;28;20055;-58
2021/12/15 13:52:01;;;;;;;112.07;51.30;;;103.30;2150.40;;;;;;5054485;28;20095;-58